Time;durP1;ratioP1;P1;durP2;ratioP2;P2;SDS_P1;SDS_P2;PMS_P1;PMS_P2;Temp;Humidity;BMP_temperature;BMP_pressure;BME280_temperature;BME280_humidity;BME280_pressure;Samples;Min_cycle;Max_cycle;Signal;HPM_P1;HPM_P2
2023/04/03 00:01:15;;;;;;;3.22;1.90;;;23.90;44.90;;;;;;5040429;28;20022;-63
2023/04/03 00:03:41;;;;;;;2.70;1.73;;;23.90;44.90;;;;;;5041725;28;20048;-63
2023/04/03 00:06:09;;;;;;;4.65;1.90;;;23.90;44.90;;;;;;5041199;28;20037;-62
2023/04/03 00:08:35;;;;;;;3.30;2.00;;;23.90;45.00;;;;;;5042398;28;20780;-63
2023/04/03 00:11:02;;;;;;;3.20;1.70;;;23.90;45.50;;;;;;5040531;28;20028;-63
2023/04/03 00:13:27;;;;;;;3.53;1.83;;;23.80;44.90;;;;;;5043574;28;20749;-63
2023/04/03 00:15:53;;;;;;;2.72;1.63;;;23.80;45.00;;;;;;5039297;28;20040;-63
2023/04/03 00:18:19;;;;;;;2.78;1.70;;;23.80;45.50;;;;;;5042022;28;20029;-62
2023/04/03 00:20:45;;;;;;;2.78;1.83;;;23.80;45.00;;;;;;5040094;28;20037;-63
2023/04/03 00:23:10;;;;;;;3.15;1.95;;;23.70;45.00;;;;;;5040919;28;20501;-63
2023/04/03 00:25:36;;;;;;;3.13;1.70;;;23.70;45.00;;;;;;5038109;28;20037;-62
2023/04/03 00:28:03;;;;;;;3.53;2.00;;;23.70;45.00;;;;;;5041013;28;20048;-62
2023/04/03 00:30:29;;;;;;;3.22;1.65;;;23.70;45.10;;;;;;5039206;28;20068;-63
2023/04/03 00:32:54;;;;;;;2.78;1.70;;;23.70;45.00;;;;;;5039482;28;20053;-63
2023/04/03 00:35:21;;;;;;;2.92;1.60;;;23.60;45.40;;;;;;5039889;28;20032;-63
2023/04/03 00:37:47;;;;;;;2.65;1.80;;;23.60;45.10;;;;;;5037531;28;20036;-63
2023/04/03 00:40:15;;;;;;;3.75;1.60;;;23.60;45.10;;;;;;5041981;28;20461;-62
2023/04/03 00:42:42;;;;;;;2.85;1.60;;;23.60;45.10;;;;;;5036964;28;20668;-62
2023/04/03 00:45:11;;;;;;;2.38;1.60;;;23.50;45.10;;;;;;5038299;28;20117;-63
2023/04/03 00:47:39;;;;;;;2.83;1.73;;;23.50;45.10;;;;;;5036462;28;20474;-63
2023/04/03 00:50:05;;;;;;;2.90;1.70;;;23.50;45.20;;;;;;5039954;28;20044;-63
2023/04/03 00:52:31;;;;;;;2.47;1.60;;;23.50;45.20;;;;;;5038225;28;20033;-63
2023/04/03 00:55:01;;;;;;;4.57;1.85;;;23.50;45.20;;;;;;5037713;28;20451;-63
2023/04/03 00:57:30;;;;;;;2.40;1.42;;;23.40;45.20;;;;;;5039174;28;20025;-63
2023/04/03 01:00:02;;;;;;;3.83;1.70;;;23.40;45.20;;;;;;5037999;28;20534;-63
2023/04/03 01:02:28;;;;;;;2.60;1.70;;;23.40;45.20;;;;;;5040178;28;20029;-63
2023/04/03 01:04:54;;;;;;;2.67;1.50;;;23.40;45.20;;;;;;5037313;28;20025;-63
2023/04/03 01:07:23;;;;;;;2.30;1.42;;;23.40;45.20;;;;;;5038010;28;20085;-63
2023/04/03 01:09:51;;;;;;;;;;;23.40;45.80;;;;;;5042156;28;20025;-62
2023/04/03 01:12:38;;;;;;;2.30;1.48;;;23.30;45.20;;;;;;5040744;28;19909;-63
2023/04/03 01:15:13;;;;;;;2.45;1.42;;;23.30;45.20;;;;;;5041496;28;20119;-63
2023/04/03 01:17:42;;;;;;;2.03;1.30;;;23.30;45.20;;;;;;5041452;28;20079;-63
2023/04/03 01:20:35;;;;;;;2.50;1.42;;;23.30;45.30;;;;;;5038586;28;20025;-63
2023/04/03 01:23:13;;;;;;;2.30;1.50;;;23.30;45.30;;;;;;5047120;28;20124;-63
2023/04/03 01:25:42;;;;;;;2.38;1.33;;;23.20;45.30;;;;;;5038526;28;20096;-62
2023/04/03 01:28:21;;;;;;;2.30;1.30;;;23.20;45.30;;;;;;5039125;28;20039;-62
2023/04/03 01:31:05;;;;;;;2.50;1.27;;;23.20;45.30;;;;;;5037179;28;20108;-63
2023/04/03 01:33:31;;;;;;;2.50;1.30;;;23.20;45.30;;;;;;5039069;28;20103;-63
2023/04/03 01:35:56;;;;;;;2.22;1.23;;;23.20;45.40;;;;;;5039761;28;20457;-63
2023/04/03 01:38:22;;;;;;;2.33;1.35;;;23.10;45.30;;;;;;5038924;28;20050;-63
2023/04/03 01:40:48;;;;;;;2.53;1.60;;;23.10;45.30;;;;;;5040752;28;20021;-63
2023/04/03 01:43:13;;;;;;;2.50;1.40;;;23.10;45.30;;;;;;5038707;28;20436;-63
2023/04/03 01:45:39;;;;;;;2.60;1.40;;;23.10;45.40;;;;;;5040836;28;20033;-63
2023/04/03 01:48:05;;;;;;;2.25;1.27;;;23.10;45.40;;;;;;5037780;28;20064;-63
2023/04/03 01:50:31;;;;;;;2.30;1.40;;;23.00;45.30;;;;;;5038244;28;20056;-63
2023/04/03 01:52:56;;;;;;;2.08;1.27;;;23.00;45.40;;;;;;5038475;28;20082;-63
2023/04/03 01:55:22;;;;;;;2.28;1.35;;;23.00;45.30;;;;;;5038375;28;20159;-63
2023/04/03 01:57:48;;;;;;;1.95;1.10;;;23.00;45.40;;;;;;5039027;28;20093;-63
2023/04/03 02:00:14;;;;;;;2.03;1.15;;;23.00;45.40;;;;;;5039657;28;20030;-63
2023/04/03 02:02:39;;;;;;;1.80;1.13;;;23.00;45.40;;;;;;5042791;28;20041;-63
2023/04/03 02:05:06;;;;;;;2.03;1.20;;;23.00;45.40;;;;;;5037498;28;20021;-62
2023/04/03 02:07:31;;;;;;;1.75;1.20;;;22.90;45.40;;;;;;5037512;28;20103;-63
2023/04/03 02:09:57;;;;;;;1.35;0.90;;;22.90;45.40;;;;;;5038605;28;20536;-63
2023/04/03 02:12:23;;;;;;;1.73;1.13;;;22.90;45.40;;;;;;5039104;28;20029;-63
2023/04/03 02:14:48;;;;;;;1.80;1.20;;;22.90;45.40;;;;;;5040171;28;20037;-62
2023/04/03 02:17:14;;;;;;;1.58;1.10;;;22.90;45.40;;;;;;5041627;28;20128;-62
2023/04/03 02:19:40;;;;;;;1.63;1.10;;;22.90;45.40;;;;;;5042399;28;20024;-62
2023/04/03 02:22:06;;;;;;;2.05;1.10;;;22.90;45.50;;;;;;5044044;28;20029;-62
2023/04/03 02:24:32;;;;;;;1.55;1.10;;;22.80;45.40;;;;;;5043133;28;20108;-62
2023/04/03 02:26:58;;;;;;;1.40;1.00;;;22.80;45.40;;;;;;5045038;28;20040;-63
2023/04/03 02:29:24;;;;;;;1.33;0.90;;;22.80;45.40;;;;;;5044486;28;20025;-63
2023/04/03 02:31:50;;;;;;;1.73;1.17;;;22.80;45.40;;;;;;5043134;28;20032;-63
2023/04/03 02:34:16;;;;;;;1.50;1.00;;;22.80;45.50;;;;;;5041395;28;20055;-62
2023/04/03 02:36:41;;;;;;;1.40;1.00;;;22.80;45.50;;;;;;5045558;28;20405;-62
2023/04/03 02:39:08;;;;;;;1.42;1.05;;;22.70;45.40;;;;;;5040080;28;20025;-63
2023/04/03 02:41:35;;;;;;;1.52;1.00;;;22.70;45.50;;;;;;5042819;28;20200;-63
2023/04/03 02:44:05;;;;;;;1.45;1.00;;;22.70;45.50;;;;;;5041858;28;20381;-62
2023/04/03 02:46:32;;;;;;;1.50;1.00;;;22.70;45.50;;;;;;5040029;28;20482;-63
2023/04/03 02:48:57;;;;;;;2.58;0.90;;;22.70;45.50;;;;;;5041381;28;20481;-63
2023/04/03 02:51:23;;;;;;;1.05;0.88;;;22.70;45.50;;;;;;5041035;28;20025;-63
2023/04/03 02:53:50;;;;;;;1.23;0.90;;;22.70;45.50;;;;;;5042157;28;20072;-62
2023/04/03 02:56:17;;;;;;;1.73;1.00;;;22.60;45.50;;;;;;5044922;28;20053;-63
2023/04/03 02:58:43;;;;;;;1.50;0.93;;;22.60;45.50;;;;;;5043123;28;20029;-63
2023/04/03 03:01:09;;;;;;;1.58;1.00;;;22.60;45.50;;;;;;5042178;28;20484;-63
2023/04/03 03:03:34;;;;;;;1.30;0.90;;;22.60;45.60;;;;;;5042793;28;20052;-62
2023/04/03 03:06:09;;;;;;;1.25;0.85;;;22.60;45.50;;;;;;5041647;28;20029;-63
2023/04/03 03:08:35;;;;;;;1.55;0.93;;;22.60;45.60;;;;;;5037234;28;20037;-63
2023/04/03 03:11:02;;;;;;;1.27;0.90;;;22.60;45.50;;;;;;5041661;28;20041;-62
2023/04/03 03:13:28;;;;;;;1.40;0.93;;;22.60;45.50;;;;;;5040813;28;20086;-63
2023/04/03 03:15:53;;;;;;;1.58;1.00;;;22.60;45.60;;;;;;5042717;28;20478;-63
2023/04/03 03:18:19;;;;;;;1.60;1.00;;;22.50;45.50;;;;;;5041779;28;20033;-63
2023/04/03 03:20:45;;;;;;;1.33;0.90;;;22.50;45.50;;;;;;5041506;28;20071;-63
2023/04/03 03:23:10;;;;;;;1.20;1.00;;;22.50;45.60;;;;;;5043430;28;20505;-63
2023/04/03 03:25:40;;;;;;;1.60;0.98;;;22.50;45.60;;;;;;5039870;28;20057;-63
2023/04/03 03:28:06;;;;;;;1.30;0.90;;;22.50;45.60;;;;;;5042154;28;20573;-63
2023/04/03 03:30:32;;;;;;;1.30;0.90;;;22.50;45.60;;;;;;5042035;28;20063;-63
2023/04/03 03:32:57;;;;;;;0.93;0.77;;;22.50;45.60;;;;;;5041663;28;20082;-62
2023/04/03 03:35:23;;;;;;;1.27;0.90;;;22.50;45.60;;;;;;5041943;28;20167;-62
2023/04/03 03:37:49;;;;;;;1.55;1.05;;;22.40;45.60;;;;;;5041432;28;20100;-62
2023/04/03 03:40:15;;;;;;;1.20;0.80;;;22.50;45.70;;;;;;5039927;28;20033;-62
2023/04/03 03:42:41;;;;;;;1.40;0.90;;;22.50;45.70;;;;;;5037481;28;20022;-62
2023/04/03 03:45:07;;;;;;;1.15;0.80;;;22.40;45.60;;;;;;5038122;28;20132;-63
2023/04/03 03:47:33;;;;;;;1.25;0.90;;;22.40;46.20;;;;;;5041859;28;20032;-63
2023/04/03 03:49:59;;;;;;;1.30;0.90;;;22.40;45.60;;;;;;5042722;28;20033;-62
2023/04/03 03:52:25;;;;;;;1.63;0.90;;;22.40;45.70;;;;;;5038032;28;20033;-62
2023/04/03 03:54:50;;;;;;;0.80;0.73;;;22.40;45.70;;;;;;5040046;28;20515;-62
2023/04/03 03:57:16;;;;;;;1.17;0.80;;;22.30;45.60;;;;;;5041164;28;20088;-63
2023/04/03 03:59:43;;;;;;;1.00;0.80;;;22.30;45.60;;;;;;5043735;28;20373;-63
2023/04/03 04:02:10;;;;;;;0.98;0.70;;;22.30;45.70;;;;;;5040893;28;20057;-62
2023/04/03 04:04:36;;;;;;;1.00;0.70;;;22.30;45.70;;;;;;5043497;28;20116;-62
2023/04/03 04:07:01;;;;;;;1.02;0.70;;;22.30;45.70;;;;;;5039465;28;20104;-62
2023/04/03 04:09:27;;;;;;;1.23;0.80;;;22.30;45.70;;;;;;5039975;28;20315;-62
2023/04/03 04:11:53;;;;;;;1.20;0.80;;;22.30;45.70;;;;;;5039087;28;20025;-62
2023/04/03 04:14:20;;;;;;;0.90;0.70;;;22.30;45.70;;;;;;5037878;28;20821;-62
2023/04/03 04:16:47;;;;;;;0.82;0.70;;;22.30;45.70;;;;;;5044588;28;20033;-62
2023/04/03 04:19:13;;;;;;;1.10;0.80;;;22.30;46.30;;;;;;5041424;28;20052;-63
2023/04/03 04:21:39;;;;;;;1.17;0.98;;;22.30;45.70;;;;;;5040401;28;20029;-62
2023/04/03 04:24:05;;;;;;;0.98;0.70;;;22.30;45.80;;;;;;5042877;28;20055;-62
2023/04/03 04:26:31;;;;;;;1.27;0.77;;;22.20;45.70;;;;;;5043185;28;20108;-63
2023/04/03 04:28:57;;;;;;;1.15;0.90;;;22.20;45.70;;;;;;5040658;28;20088;-62
2023/04/03 04:31:22;;;;;;;0.90;0.70;;;22.20;45.80;;;;;;5041461;28;20024;-63
2023/04/03 04:33:48;;;;;;;1.00;0.80;;;22.20;45.80;;;;;;5040409;28;20100;-62
2023/04/03 04:36:14;;;;;;;0.98;0.80;;;22.20;45.80;;;;;;5041191;28;20056;-62
2023/04/03 04:38:41;;;;;;;1.08;0.80;;;22.20;45.80;;;;;;5040421;28;20405;-63
2023/04/03 04:41:07;;;;;;;1.48;0.70;;;22.20;45.80;;;;;;5043808;28;20137;-63
2023/04/03 04:43:33;;;;;;;1.00;0.80;;;22.20;45.80;;;;;;5038400;28;20375;-63
2023/04/03 04:46:11;;;;;;;1.05;0.70;;;22.20;45.80;;;;;;5038958;28;20024;-63
2023/04/03 04:48:37;;;;;;;0.95;0.80;;;22.20;45.80;;;;;;5039697;28;20025;-62
2023/04/03 04:51:03;;;;;;;0.80;0.70;;;22.20;45.80;;;;;;5039479;28;20882;-62
2023/04/03 04:53:28;;;;;;;0.70;0.63;;;22.10;45.80;;;;;;5040402;28;20485;-62
2023/04/03 04:55:54;;;;;;;1.23;0.80;;;22.20;45.80;;;;;;5036644;28;20071;-61
2023/04/03 04:58:20;;;;;;;0.90;0.80;;;22.10;45.80;;;;;;5037423;28;20065;-63
2023/04/03 05:00:46;;;;;;;0.90;0.73;;;22.10;45.80;;;;;;5039783;28;20037;-63
2023/04/03 05:03:11;;;;;;;1.15;0.80;;;22.10;45.80;;;;;;5039580;28;20441;-63
2023/04/03 05:05:37;;;;;;;0.80;0.70;;;22.10;45.80;;;;;;5041172;28;20029;-63
2023/04/03 05:08:04;;;;;;;0.77;0.73;;;22.10;45.80;;;;;;5037878;28;20033;-63
2023/04/03 05:10:31;;;;;;;1.15;0.70;;;22.10;45.90;;;;;;5038907;28;20028;-63
2023/04/03 05:12:57;;;;;;;0.52;0.52;;;22.10;45.80;;;;;;5038974;28;20389;-63
2023/04/03 05:15:22;;;;;;;0.90;0.70;;;22.10;45.80;;;;;;5037776;28;20470;-63
2023/04/03 05:17:48;;;;;;;1.00;0.80;;;22.10;45.90;;;;;;5038307;28;20109;-63
2023/04/03 05:20:13;;;;;;;1.33;0.70;;;22.10;45.90;;;;;;5039541;28;20017;-63
2023/04/03 05:22:39;;;;;;;1.30;0.80;;;22.10;45.90;;;;;;5038662;28;20068;-64
2023/04/03 05:25:06;;;;;;;0.85;0.70;;;22.10;45.90;;;;;;5036740;28;20127;-63
2023/04/03 05:27:32;;;;;;;0.77;0.60;;;22.10;45.90;;;;;;5040009;28;20519;-63
2023/04/03 05:29:57;;;;;;;1.13;0.70;;;22.10;46.40;;;;;;5038139;28;20065;-63
2023/04/03 05:32:26;;;;;;;1.83;0.75;;;22.00;45.80;;;;;;5036347;28;20112;-63
2023/04/03 05:34:51;;;;;;;0.98;0.70;;;22.10;45.90;;;;;;5038240;28;20416;-63
2023/04/03 05:37:17;;;;;;;1.33;0.80;;;22.10;45.90;;;;;;5040742;28;20086;-63
2023/04/03 05:39:43;;;;;;;1.45;0.80;;;22.10;45.90;;;;;;5041274;28;20021;-63
2023/04/03 05:42:08;;;;;;;0.75;0.70;;;22.00;45.90;;;;;;5041081;28;20076;-63
2023/04/03 05:44:34;;;;;;;1.13;0.73;;;22.00;45.90;;;;;;5036998;28;20487;-63
2023/04/03 05:47:00;;;;;;;1.30;0.80;;;22.00;45.90;;;;;;5038651;28;20048;-63
2023/04/03 05:49:26;;;;;;;1.67;0.77;;;22.00;45.90;;;;;;5041898;28;20052;-63
2023/04/03 05:51:51;;;;;;;1.40;0.90;;;22.00;45.90;;;;;;5038385;28;20104;-63
2023/04/03 05:54:26;;;;;;;0.70;0.63;;;22.00;45.90;;;;;;5037513;28;20136;-63
2023/04/03 05:56:52;;;;;;;1.95;0.75;;;22.00;45.90;;;;;;5038799;28;20428;-63
2023/04/03 05:59:19;;;;;;;1.10;0.80;;;22.00;45.90;;;;;;5037587;28;20112;-63
2023/04/03 06:01:46;;;;;;;1.08;0.70;;;22.00;45.90;;;;;;5041001;28;20136;-63
2023/04/03 06:04:12;;;;;;;1.00;0.60;;;22.00;45.90;;;;;;5041215;28;20380;-63
2023/04/03 06:06:55;;;;;;;1.42;0.80;;;22.00;45.90;;;;;;5038735;28;20018;-63
2023/04/03 06:09:23;;;;;;;1.15;0.70;;;22.00;45.80;;;;;;5038934;28;20021;-63
2023/04/03 06:11:50;;;;;;;1.80;0.90;;;22.00;45.90;;;;;;5042652;28;20025;-63
2023/04/03 06:14:15;;;;;;;1.23;0.80;;;22.00;45.90;;;;;;5039565;28;20320;-64
2023/04/03 06:16:41;;;;;;;2.28;0.80;;;21.90;45.80;;;;;;5036963;28;20064;-63
2023/04/03 06:19:09;;;;;;;1.20;0.80;;;21.90;45.80;;;;;;5041100;28;20029;-63
2023/04/03 06:21:35;;;;;;;1.80;0.88;;;21.90;45.90;;;;;;5035657;28;20041;-62
2023/04/03 06:24:02;;;;;;;1.92;0.90;;;21.90;45.80;;;;;;5040680;28;20029;-63
2023/04/03 06:26:28;;;;;;;2.15;0.93;;;21.90;45.80;;;;;;5039028;28;20032;-63
2023/04/03 06:28:54;;;;;;;1.40;0.80;;;21.90;45.80;;;;;;5037239;28;20025;-63
2023/04/03 06:31:20;;;;;;;2.38;0.90;;;21.90;45.80;;;;;;5033563;28;20032;-63
2023/04/03 06:33:45;;;;;;;1.52;0.85;;;21.90;45.90;;;;;;5038259;28;20120;-63
2023/04/03 06:36:12;;;;;;;2.05;1.13;;;21.90;45.90;;;;;;5037833;28;20026;-63
2023/04/03 06:38:38;;;;;;;2.45;0.90;;;21.90;45.80;;;;;;5036141;28;20522;-63
2023/04/03 06:41:04;;;;;;;1.85;0.93;;;21.80;45.80;;;;;;5038587;28;20040;-63
2023/04/03 06:43:31;;;;;;;1.88;0.90;;;21.90;45.90;;;;;;5041239;28;20025;-63
2023/04/03 06:45:57;;;;;;;2.33;1.10;;;21.80;45.80;;;;;;5040481;28;20017;-63
2023/04/03 06:48:23;;;;;;;2.33;1.10;;;21.80;45.80;;;;;;5040479;28;20033;-63
2023/04/03 06:50:48;;;;;;;3.17;1.15;;;21.80;45.80;;;;;;5037648;28;20037;-63
2023/04/03 06:53:14;;;;;;;1.88;1.00;;;21.90;45.80;;;;;;5036892;28;20170;-62
2023/04/03 06:55:41;;;;;;;1.73;0.90;;;21.80;45.80;;;;;;5040919;28;20389;-63
2023/04/03 06:58:07;;;;;;;2.55;1.00;;;21.80;45.80;;;;;;5042650;28;20108;-63
2023/04/03 07:00:33;;;;;;;2.42;0.95;;;21.80;45.80;;;;;;5039938;28;20029;-63
2023/04/03 07:02:59;;;;;;;2.65;1.10;;;21.80;45.80;;;;;;5041330;28;20028;-63
2023/04/03 07:05:25;;;;;;;2.92;1.20;;;21.80;45.80;;;;;;5044251;28;20477;-63
2023/04/03 07:07:52;;;;;;;1.90;0.98;;;21.80;45.80;;;;;;5040735;28;20036;-63
2023/04/03 07:10:17;;;;;;;2.22;1.00;;;21.80;45.80;;;;;;5040597;28;20112;-63
2023/04/03 07:12:43;;;;;;;3.70;1.15;;;21.80;45.70;;;;;;5041563;28;20092;-63
2023/04/03 07:15:09;;;;;;;2.17;0.82;;;21.80;45.80;;;;;;5040925;28;20037;-62
2023/04/03 07:17:36;;;;;;;1.83;1.00;;;21.80;45.80;;;;;;5042160;28;20029;-63
2023/04/03 07:20:03;;;;;;;1.40;0.90;;;21.80;45.80;;;;;;5042269;28;20029;-63
2023/04/03 07:22:29;;;;;;;2.67;1.10;;;21.70;45.80;;;;;;5042389;28;20484;-63
2023/04/03 07:24:55;;;;;;;2.13;1.00;;;21.70;45.80;;;;;;5043495;28;20033;-63
2023/04/03 07:27:21;;;;;;;2.55;0.98;;;21.80;45.80;;;;;;5041846;28;20422;-62
2023/04/03 07:29:48;;;;;;;2.00;0.90;;;21.70;45.80;;;;;;5041929;28;20132;-63
2023/04/03 07:32:14;;;;;;;1.58;0.93;;;21.80;45.90;;;;;;5039358;28;20041;-63
2023/04/03 07:34:41;;;;;;;1.77;1.00;;;21.70;45.80;;;;;;5039799;28;20024;-63
2023/04/03 07:37:06;;;;;;;2.50;1.10;;;21.80;45.90;;;;;;5040201;28;20029;-63
2023/04/03 07:39:32;;;;;;;3.03;1.00;;;21.70;45.80;;;;;;5041884;28;20414;-63
2023/04/03 07:41:58;;;;;;;3.35;1.67;;;21.70;45.80;;;;;;5039762;28;20540;-63
2023/04/03 07:44:25;;;;;;;1.52;0.85;;;21.70;45.80;;;;;;5042324;28;20056;-63
2023/04/03 07:46:50;;;;;;;2.15;1.00;;;21.70;45.80;;;;;;5040335;28;20029;-63
2023/04/03 07:49:18;;;;;;;1.80;0.90;;;21.70;45.80;;;;;;5042606;28;20029;-63
2023/04/03 07:51:44;;;;;;;2.42;1.17;;;21.70;45.80;;;;;;5041162;28;20034;-63
2023/04/03 07:54:10;;;;;;;2.38;1.00;;;21.70;45.70;;;;;;5040239;28;20563;-63
2023/04/03 07:56:36;;;;;;;2.25;1.02;;;21.70;45.80;;;;;;5039389;28;20027;-63
2023/04/03 07:59:02;;;;;;;1.92;0.95;;;21.70;45.80;;;;;;5044127;28;20106;-63
2023/04/03 08:01:28;;;;;;;2.05;1.00;;;21.70;45.70;;;;;;5043665;28;20034;-63
2023/04/03 08:03:54;;;;;;;2.53;1.02;;;21.70;45.70;;;;;;5042495;28;20096;-63
2023/04/03 08:06:19;;;;;;;1.50;0.80;;;21.70;45.80;;;;;;5039354;28;20546;-63
2023/04/03 08:08:45;;;;;;;2.03;0.93;;;21.70;45.70;;;;;;5037783;28;20044;-63
2023/04/03 08:11:11;;;;;;;1.67;0.90;;;21.70;45.70;;;;;;5037829;28;20133;-63
2023/04/03 08:13:37;;;;;;;1.42;0.88;;;21.60;45.70;;;;;;5040380;28;20108;-63
2023/04/03 08:16:12;;;;;;;1.80;0.90;;;21.60;45.70;;;;;;5041055;28;20111;-62
2023/04/03 08:18:38;;;;;;;1.60;1.00;;;21.70;45.70;;;;;;5037895;28;20533;-63
2023/04/03 08:21:12;;;;;;;1.98;0.90;;;21.70;45.70;;;;;;5039307;28;20057;-63
2023/04/03 08:23:39;;;;;;;2.47;1.00;;;21.60;45.60;;;;;;5038453;28;20121;-63
2023/04/03 08:26:15;;;;;;;2.13;1.02;;;21.70;45.70;;;;;;5040651;28;20104;-63
2023/04/03 08:28:41;;;;;;;1.80;1.00;;;21.60;45.60;;;;;;5040510;28;20123;-63
2023/04/03 08:31:12;;;;;;;1.75;0.90;;;21.60;45.60;;;;;;5044055;28;20055;-63
2023/04/03 08:33:38;;;;;;;1.90;1.00;;;21.60;45.60;;;;;;5047624;28;20029;-63
2023/04/03 08:36:07;;;;;;;2.33;1.00;;;21.60;45.60;;;;;;5040923;28;20473;-63
2023/04/03 08:38:33;;;;;;;1.63;1.10;;;21.60;45.60;;;;;;5038532;28;20024;-63
2023/04/03 08:41:11;;;;;;;1.92;1.00;;;21.60;45.60;;;;;;5039420;28;20040;-63
2023/04/03 08:44:04;;;;;;;1.90;0.98;;;21.60;45.70;;;;;;5041279;28;20091;-63
2023/04/03 08:47:12;;;;;;;1.05;0.77;;;21.60;45.60;;;;;;5039479;28;20493;-63
2023/04/03 08:50:00;;;;;;;1.38;0.75;;;21.60;45.60;;;;;;5014852;28;20108;-63
2023/04/03 08:52:45;;;;;;;1.17;0.80;;;21.60;45.60;;;;;;5040315;28;20041;-63
2023/04/03 08:55:30;;;;;;;1.55;1.02;;;21.60;45.60;;;;;;5036945;28;20057;-63
2023/04/03 08:58:02;;;;;;;1.52;0.80;;;21.60;45.60;;;;;;5041741;28;20450;-63
2023/04/03 09:00:50;;;;;;;1.75;0.90;;;21.60;45.60;;;;;;5037585;28;20052;-63
2023/04/03 09:03:19;;;;;;;1.73;0.85;;;21.60;45.50;;;;;;5040068;28;20036;-63
2023/04/03 09:05:57;;;;;;;1.27;0.70;;;21.60;45.60;;;;;;5039762;28;20084;-63
2023/04/03 09:08:26;;;;;;;1.75;0.90;;;21.50;45.50;;;;;;5037111;28;20500;-63
2023/04/03 09:11:09;;;;;;;1.08;0.80;;;21.60;45.50;;;;;;5039984;28;20112;-63
2023/04/03 09:13:52;;;;;;;1.23;0.80;;;21.50;45.50;;;;;;5037403;28;20025;-63
2023/04/03 09:16:44;;;;;;;1.50;0.80;;;21.50;45.40;;;;;;5039587;28;20061;-63
2023/04/03 09:19:32;;;;;;;2.40;0.90;;;21.50;45.50;;;;;;5032846;28;20036;-64
2023/04/03 09:22:19;;;;;;;2.00;1.02;;;21.50;45.50;;;;;;5040420;28;20081;-63
2023/04/03 09:24:55;;;;;;;2.55;1.20;;;21.50;45.70;;;;;;5039076;28;20503;-64
2023/04/03 09:27:21;;;;;;;1.88;1.05;;;21.60;46.10;;;;;;5038563;28;20152;-63
2023/04/03 09:29:47;;;;;;;2.03;1.00;;;21.60;45.60;;;;;;5044590;28;20133;-63
2023/04/03 09:32:25;;;;;;;2.10;1.10;;;21.60;45.50;;;;;;5039405;28;20484;-63
2023/04/03 09:34:52;;;;;;;2.58;1.10;;;21.70;45.60;;;;;;5042305;28;20451;-63
2023/04/03 09:37:37;;;;;;;1.27;0.90;;;21.70;45.60;;;;;;5039695;28;20365;-63
2023/04/03 09:40:04;;;;;;;1.23;0.90;;;21.70;45.50;;;;;;5038723;28;20028;-63
2023/04/03 09:42:31;;;;;;;2.17;0.93;;;21.70;45.60;;;;;;5037333;28;20040;-63
2023/04/03 09:44:56;;;;;;;2.72;0.93;;;21.80;45.50;;;;;;5039013;28;20026;-63
2023/04/03 09:47:29;;;;;;;2.33;1.00;;;21.80;45.50;;;;;;5037739;28;20026;-63
2023/04/03 09:50:23;;;;;;;1.15;0.80;;;21.80;45.90;;;;;;5040084;28;20036;-63
2023/04/03 09:52:54;;;;;;;3.42;1.05;;;21.90;45.50;;;;;;5040426;28;20567;-64
2023/04/03 09:55:29;;;;;;;2.22;1.02;;;21.80;45.50;;;;;;5037659;28;20481;-64
2023/04/03 09:58:01;;;;;;;2.75;1.10;;;21.80;45.40;;;;;;5038765;28;20370;-63
2023/04/03 10:00:35;;;;;;;2.25;1.05;;;21.90;45.90;;;;;;5040898;28;20417;-63
2023/04/03 10:03:02;;;;;;;1.98;1.00;;;21.90;45.30;;;;;;5040780;28;20444;-63
2023/04/03 10:05:42;;;;;;;2.55;1.15;;;21.90;45.70;;;;;;5035275;28;20091;-64
2023/04/03 10:08:13;;;;;;;2.60;1.10;;;21.90;45.10;;;;;;5038627;28;20180;-63
2023/04/03 10:11:04;;;;;;;1.50;1.00;;;21.90;45.10;;;;;;5038158;28;20458;-63
2023/04/03 10:13:30;;;;;;;2.65;1.13;;;22.00;45.10;;;;;;5036875;28;20477;-63
2023/04/03 10:16:06;;;;;;;2.28;1.25;;;22.00;45.60;;;;;;5036519;28;20028;-63
2023/04/03 10:19:04;;;;;;;1.88;1.00;;;22.00;45.00;;;;;;5038715;28;20084;-63
2023/04/03 10:21:44;;;;;;;1.42;1.00;;;22.00;45.10;;;;;;5017919;28;20029;-63
2023/04/03 10:24:23;;;;;;;2.00;1.10;;;22.00;45.00;;;;;;5034326;28;20441;-63
2023/04/03 10:26:54;;;;;;;;;;;22.00;45.10;;;;;;5040126;28;20513;-62
2023/04/03 10:29:37;;;;;;;2.15;1.10;;;22.00;45.20;;;;;;5038933;28;19912;-62
2023/04/03 10:32:16;;;;;;;1.80;0.98;;;22.10;45.50;;;;;;5042962;28;20026;-63
2023/04/03 10:34:45;;;;;;;2.37;1.30;;;22.10;45.40;;;;;;5043480;28;20071;-62
2023/04/03 10:37:20;;;;;;;3.88;1.38;;;22.10;45.40;;;;;;5043103;28;20280;-63
2023/04/03 10:40:06;;;;;;;2.45;1.08;;;22.10;45.30;;;;;;5043092;28;20472;-63
2023/04/03 10:42:55;;;;;;;1.95;1.20;;;22.10;45.30;;;;;;5012045;28;20030;-63
2023/04/03 10:45:55;;;;;;;2.88;1.40;;;22.20;45.40;;;;;;5042233;28;20021;-63
2023/04/03 10:48:27;;;;;;;2.42;1.20;;;22.20;45.40;;;;;;5041790;28;20053;-63
2023/04/03 10:51:16;;;;;;;3.35;1.25;;;22.20;45.30;;;;;;5040226;28;20427;-64
2023/04/03 10:54:32;;;;;;;3.17;1.08;;;22.20;45.30;;;;;;5040777;28;20033;-63
2023/04/03 10:57:04;;;;;;;2.33;1.10;;;22.30;45.30;;;;;;5015948;28;20493;-63
2023/04/03 10:59:36;;;;;;;3.20;1.10;;;22.30;45.20;;;;;;5040397;28;20033;-63
2023/04/03 11:02:34;;;;;;;2.28;1.10;;;22.30;45.20;;;;;;5039305;28;20108;-63
2023/04/03 11:05:26;;;;;;;2.22;1.30;;;22.40;45.10;;;;;;5042753;28;20032;-63
2023/04/03 11:07:55;;;;;;;2.08;1.05;;;22.40;45.10;;;;;;5039981;28;20028;-63
2023/04/03 11:10:28;;;;;;;2.45;1.05;;;22.40;45.10;;;;;;5041413;28;20078;-62
2023/04/03 11:13:06;;;;;;;2.55;1.30;;;22.50;45.10;;;;;;5041380;28;20101;-62
2023/04/03 11:15:33;;;;;;;2.03;1.10;;;22.50;45.00;;;;;;5042638;28;20497;-63
2023/04/03 11:18:06;;;;;;;5.50;1.80;;;22.50;45.00;;;;;;5038342;28;20113;-63
2023/04/03 11:20:33;;;;;;;2.75;1.30;;;22.50;44.90;;;;;;5041122;28;20029;-63
2023/04/03 11:23:28;;;;;;;2.45;1.10;;;22.50;45.40;;;;;;5043635;28;20492;-63
2023/04/03 11:26:01;;;;;;;2.22;1.10;;;22.60;44.90;;;;;;5043192;28;20115;-63
2023/04/03 11:28:27;;;;;;;2.50;1.10;;;22.60;44.80;;;;;;5042572;28;20444;-62
2023/04/03 11:31:08;;;;;;;2.33;1.00;;;22.70;44.80;;;;;;5043830;28;20045;-63
2023/04/03 11:33:36;;;;;;;2.35;1.05;;;22.60;44.70;;;;;;5041412;28;20072;-62
2023/04/03 11:36:13;;;;;;;2.47;1.20;;;22.70;44.70;;;;;;5040917;28;20125;-63
2023/04/03 11:38:44;;;;;;;2.30;1.25;;;22.70;44.60;;;;;;5043940;28;20388;-63
2023/04/03 11:41:12;;;;;;;2.88;1.23;;;22.70;44.60;;;;;;5040561;28;20117;-63
2023/04/03 11:43:55;;;;;;;1.98;1.10;;;22.70;44.50;;;;;;5036007;28;20553;-63
2023/04/03 11:46:21;;;;;;;2.35;1.10;;;22.80;44.50;;;;;;5041788;28;20041;-63
2023/04/03 11:48:49;;;;;;;2.03;1.10;;;22.80;44.50;;;;;;5041058;28;20029;-63
2023/04/03 11:51:20;;;;;;;1.65;1.13;;;22.80;44.50;;;;;;5042216;28;20078;-63
2023/04/03 11:53:46;;;;;;;2.90;1.45;;;22.80;44.40;;;;;;5040278;28;20468;-63
2023/04/03 11:56:27;;;;;;;2.33;1.10;;;22.90;44.50;;;;;;5039683;28;20485;-63
2023/04/03 11:59:11;;;;;;;2.55;1.08;;;22.90;44.40;;;;;;5041279;28;20096;-63
2023/04/03 12:02:26;;;;;;;2.55;1.17;;;22.90;44.40;;;;;;5042769;28;20040;-63
2023/04/03 12:05:38;;;;;;;2.17;1.17;;;22.90;44.30;;;;;;5039882;28;20044;-63
2023/04/03 12:08:32;;;;;;;2.65;1.20;;;23.00;44.40;;;;;;5039229;28;20132;-63
2023/04/03 12:11:10;;;;;;;1.92;1.10;;;23.00;44.40;;;;;;5034993;28;20105;-63
2023/04/03 12:14:02;;;;;;;2.17;1.00;;;23.00;44.20;;;;;;5037111;28;20034;-64
2023/04/03 12:16:38;;;;;;;2.05;1.05;;;23.00;44.20;;;;;;5037652;28;20032;-63
2023/04/03 12:19:18;;;;;;;2.63;1.15;;;23.00;44.20;;;;;;5037535;28;20535;-63
2023/04/03 12:21:46;;;;;;;2.47;1.20;;;23.00;44.20;;;;;;5040377;28;20029;-63
2023/04/03 12:24:21;;;;;;;2.45;1.20;;;23.00;44.20;;;;;;5039717;28;20032;-63
2023/04/03 12:26:51;;;;;;;2.00;1.10;;;23.10;44.20;;;;;;5040382;28;20047;-63
2023/04/03 12:29:34;;;;;;;2.80;1.10;;;23.10;44.20;;;;;;5038696;28;20049;-64
2023/04/03 12:32:18;;;;;;;3.08;0.90;;;23.10;44.20;;;;;;5056838;28;20068;-63
2023/04/03 12:34:52;;;;;;;2.85;1.20;;;23.20;44.20;;;;;;5037341;28;20025;-63
2023/04/03 12:37:50;;;;;;;1.92;1.02;;;23.20;44.20;;;;;;5041476;28;20019;-63
2023/04/03 12:40:41;;;;;;;1.60;0.80;;;23.20;44.20;;;;;;5041008;28;20460;-64
2023/04/03 12:43:22;;;;;;;2.60;1.20;;;23.20;44.60;;;;;;5039324;28;20029;-63
2023/04/03 12:45:58;;;;;;;2.63;1.00;;;23.20;44.10;;;;;;5039067;28;20029;-63
2023/04/03 12:48:26;;;;;;;2.80;1.20;;;23.30;44.10;;;;;;5043196;28;20526;-63
2023/04/03 12:50:52;;;;;;;2.08;1.10;;;23.30;44.10;;;;;;5039258;28;20397;-62
2023/04/03 12:53:30;;;;;;;2.35;1.10;;;23.30;44.10;;;;;;5037388;28;20026;-63
2023/04/03 12:55:56;;;;;;;3.47;1.23;;;23.30;44.00;;;;;;5039829;28;20030;-63
2023/04/03 12:58:26;;;;;;;1.83;1.00;;;23.40;44.00;;;;;;5041852;28;20496;-63
2023/04/03 13:01:08;;;;;;;3.17;1.25;;;23.40;44.00;;;;;;5038819;28;20033;-63
2023/04/03 13:03:36;;;;;;;1.77;0.98;;;23.40;43.90;;;;;;5038009;28;20109;-63
2023/04/03 13:06:03;;;;;;;2.38;1.17;;;23.40;43.90;;;;;;5041315;28;20044;-63